createdAt,value
2022-09-12T00:01:38.227Z,97504.66
2022-09-12T00:04:04.793Z,97494.44
2022-09-12T00:06:36.392Z,97501.38
2022-09-12T00:09:06.468Z,97500.97
2022-09-12T00:11:39.058Z,97497.69
2022-09-12T00:14:07.473Z,97505.47
2022-09-12T00:16:35.872Z,97503.59
2022-09-12T00:19:04.112Z,97503.28
2022-09-12T00:21:33.440Z,97504.19
2022-09-12T00:24:00.221Z,97506.66
2022-09-12T00:26:26.881Z,97501.81
2022-09-12T00:28:53.405Z,97504.28
2022-09-12T00:31:24.005Z,97505.91
2022-09-12T00:33:51.185Z,97495.34
2022-09-12T00:36:20.672Z,97499.69
2022-09-12T00:38:48.248Z,97498.84
2022-09-12T00:41:20.909Z,97498.13
2022-09-12T00:43:50.426Z,97497.06
2022-09-12T00:46:29.700Z,97490.50
2022-09-12T00:49:11.080Z,97497.88
2022-09-12T00:51:38.629Z,97485.75
2022-09-12T00:54:14.051Z,97492.06
2022-09-12T00:56:43.953Z,97489.03
2022-09-12T00:59:16.561Z,97481.28
2022-09-12T01:01:46.501Z,97480.91
2022-09-12T01:04:13.625Z,97472.72
2022-09-12T01:06:43.082Z,97474.97
2022-09-12T01:09:13.313Z,97468.19
2022-09-12T01:11:40.269Z,97464.63
2022-09-12T01:14:09.033Z,97465.72
2022-09-12T01:16:37.321Z,97463.31
2022-09-12T01:19:24.897Z,97458.53
2022-09-12T01:22:03.613Z,97449.25
2022-09-12T01:24:53.970Z,97446.97
2022-09-12T01:27:28.260Z,97443.47
2022-09-12T01:30:19.013Z,97450.53
2022-09-12T01:33:17.521Z,97447.03
2022-09-12T01:35:52.922Z,97442.69
2022-09-12T01:38:27.562Z,97445.09
2022-09-12T01:41:21.096Z,97445.97
2022-09-12T01:43:58.161Z,97440.56
2022-09-12T01:46:42.909Z,97435.53
2022-09-12T01:49:22.968Z,97446.91
2022-09-12T01:52:10.057Z,97432.38
2022-09-12T01:54:43.447Z,97429.47
2022-09-12T01:57:20.625Z,97428.97
2022-09-12T01:59:51.218Z,97432.50
2022-09-12T02:02:36.336Z,97438.41
2022-09-12T02:05:18.508Z,97433.16
2022-09-12T02:07:47.309Z,97432.44
2022-09-12T02:10:19.532Z,97433.75
2022-09-12T02:12:56.480Z,97422.41
2022-09-12T02:15:29.367Z,97420.56
2022-09-12T02:17:58.204Z,97421.88
2022-09-12T02:20:49.369Z,97416.53
2022-09-12T02:23:26.386Z,97414.66
2022-09-12T02:26:00.111Z,97418.31
2022-09-12T02:28:32.446Z,97419.06
2022-09-12T02:31:11.041Z,97414.53
2022-09-12T02:33:49.833Z,97414.38
2022-09-12T02:36:23.873Z,97414.38
2022-09-12T02:38:50.901Z,97416.94
2022-09-12T02:41:20.503Z,97414.78
2022-09-12T02:43:50.304Z,97411.47
2022-09-12T02:46:23.316Z,97414.47
2022-09-12T02:48:49.851Z,97409.81
2022-09-12T02:51:20.393Z,97407.09
2022-09-12T02:53:50.438Z,97397.88
2022-09-12T02:56:34.861Z,97401.06
2022-09-12T02:59:07.925Z,97405.81
2022-09-12T03:02:01.961Z,97406.34
2022-09-12T03:04:58.677Z,97407.31
2022-09-12T03:07:57.065Z,97405.63
2022-09-12T03:10:51.152Z,97406.88
2022-09-12T03:13:20.603Z,97404.66
2022-09-12T03:16:05.369Z,97410.16
2022-09-12T03:19:10.076Z,97405.16
2022-09-12T03:22:02.272Z,97404.84
2022-09-12T03:24:53.600Z,97400.16
2022-09-12T03:27:27.171Z,97402.56
2022-09-12T03:29:55.698Z,97411.97
2022-09-12T03:32:47.921Z,97408.38
2022-09-12T03:35:17.945Z,97402.16
2022-09-12T03:37:48.224Z,97398.53
2022-09-12T03:40:15.501Z,97401.88
2022-09-12T03:42:42.200Z,97395.06
2022-09-12T03:45:09.549Z,97402.03
2022-09-12T03:47:36.047Z,97406.13
2022-09-12T03:50:03.773Z,97402.50
2022-09-12T03:52:30.381Z,97410.63
2022-09-12T03:54:56.769Z,97408.97
2022-09-12T03:57:23.206Z,97409.66
2022-09-12T03:59:50.577Z,97407.63
2022-09-12T04:02:17.558Z,97406.56
2022-09-12T04:04:44.128Z,97401.94
2022-09-12T04:07:11.168Z,97404.78
2022-09-12T04:09:37.715Z,97398.59
2022-09-12T04:12:04.557Z,97401.22
2022-09-12T04:14:30.936Z,97405.97
2022-09-12T04:16:57.323Z,97397.38
2022-09-12T04:19:25.165Z,97403.09
2022-09-12T04:21:51.580Z,97398.03
2022-09-12T04:24:18.030Z,97400.16
2022-09-12T04:26:44.438Z,97406.56
2022-09-12T04:29:15.007Z,97401.72
2022-09-12T04:31:41.783Z,97404.78
2022-09-12T04:34:08.667Z,97406.25
2022-09-12T04:36:35.694Z,97398.53
2022-09-12T04:39:03.889Z,97400.00
2022-09-12T04:41:33.761Z,97400.00
2022-09-12T04:44:04.119Z,97401.47
2022-09-12T04:46:33.357Z,97404.66
2022-09-12T04:48:59.822Z,97395.75
2022-09-12T04:51:32.059Z,97396.91
2022-09-12T04:54:01.065Z,97393.13
2022-09-12T04:56:28.739Z,97390.59
2022-09-12T04:58:58.238Z,97392.53
2022-09-12T05:01:24.838Z,97385.50
2022-09-12T05:03:51.553Z,97390.75
2022-09-12T05:06:21.937Z,97394.41
2022-09-12T05:08:48.476Z,97383.34
2022-09-12T05:11:24.748Z,97395.00
2022-09-12T05:13:53.768Z,97395.72
2022-09-12T05:16:21.347Z,97398.16
2022-09-12T05:18:48.948Z,97399.41
2022-09-12T05:21:18.547Z,97403.84
2022-09-12T05:23:45.481Z,97399.38
2022-09-12T05:26:16.291Z,97402.78
2022-09-12T05:28:42.905Z,97408.59
2022-09-12T05:31:15.631Z,97402.53
2022-09-12T05:33:44.146Z,97405.09
2022-09-12T05:36:13.453Z,97402.13
2022-09-12T05:38:40.034Z,97412.75
2022-09-12T05:41:12.401Z,97408.44
2022-09-12T05:43:43.782Z,97408.50
2022-09-12T05:46:13.658Z,97408.38
2022-09-12T05:48:42.841Z,97406.56
2022-09-12T05:51:13.197Z,97412.06
2022-09-12T05:53:41.362Z,97406.97
2022-09-12T05:56:17.880Z,97398.69
2022-09-12T05:58:47.567Z,97403.47
2022-09-12T06:01:19.225Z,97400.81
2022-09-12T06:03:51.689Z,97399.69
2022-09-12T06:06:21.552Z,97406.84
2022-09-12T06:08:50.556Z,97402.75
2022-09-12T06:11:20.762Z,97406.50
2022-09-12T06:13:47.428Z,97398.03
2022-09-12T06:16:17.968Z,97403.16
2022-09-12T06:18:56.210Z,97398.72
2022-09-12T06:21:24.095Z,97400.81
2022-09-12T06:23:51.135Z,97393.91
2022-09-12T06:26:21.476Z,97397.59
2022-09-12T06:28:48.147Z,97397.41
2022-09-12T06:31:20.454Z,97394.84
2022-09-12T06:33:49.358Z,97397.09
2022-09-12T06:36:18.268Z,97395.56
2022-09-12T06:38:51.199Z,97388.03
2022-09-12T06:41:17.818Z,97393.50
2022-09-12T06:43:44.370Z,97390.31
2022-09-12T06:46:12.962Z,97393.63
2022-09-12T06:48:42.990Z,97388.25
2022-09-12T06:51:13.339Z,97392.09
2022-09-12T06:53:39.936Z,97395.94
2022-09-12T06:56:12.628Z,97395.44
2022-09-12T06:58:39.897Z,97386.50
2022-09-12T07:01:12.191Z,97394.44
2022-09-12T07:03:39.736Z,97399.09
2022-09-12T07:06:09.145Z,97392.06
2022-09-12T07:08:37.270Z,97387.44
2022-09-12T07:11:09.571Z,97392.59
2022-09-12T07:13:36.043Z,97396.13
2022-09-12T07:16:04.162Z,97396.13
2022-09-12T07:18:31.433Z,97399.38
2022-09-12T07:21:02.889Z,97397.41
2022-09-12T07:23:30.215Z,97397.66
2022-09-12T07:25:58.403Z,97396.03
2022-09-12T07:28:26.652Z,97391.63
2022-09-12T07:30:53.904Z,97391.06
2022-09-12T07:33:21.877Z,97397.03
2022-09-12T07:35:48.400Z,97384.09
2022-09-12T07:38:15.087Z,97396.06
2022-09-12T07:40:41.944Z,97391.94
2022-09-12T07:43:08.735Z,97394.59
2022-09-12T07:45:35.321Z,97386.34
2022-09-12T07:48:02.142Z,97388.44
2022-09-12T07:50:28.585Z,97389.50
2022-09-12T07:52:55.238Z,97387.72
2022-09-12T07:55:22.198Z,97381.72
2022-09-12T07:57:52.280Z,97387.34
2022-09-12T08:00:18.899Z,97382.34
2022-09-12T08:02:45.398Z,97383.84
2022-09-12T08:05:11.830Z,97387.78
2022-09-12T08:07:38.230Z,97385.22
2022-09-12T08:10:06.457Z,97386.66
2022-09-12T08:12:34.503Z,97390.22
2022-09-12T08:15:00.980Z,97391.28
2022-09-12T08:17:27.528Z,97391.19
2022-09-12T08:19:53.993Z,97390.63
2022-09-12T08:22:21.860Z,97394.91
2022-09-12T08:24:49.604Z,97394.81
2022-09-12T08:27:16.321Z,97394.16
2022-09-12T08:29:42.813Z,97394.16
2022-09-12T08:32:09.216Z,97390.72
2022-09-12T08:34:35.746Z,97393.09
2022-09-12T08:37:02.155Z,97389.41
2022-09-12T08:39:28.633Z,97393.97
2022-09-12T08:42:03.047Z,97387.84
2022-09-12T08:44:54.159Z,97386.03
2022-09-12T08:47:32.676Z,97384.88
2022-09-12T08:50:08.592Z,97381.84
2022-09-12T08:52:47.231Z,97382.50
2022-09-12T08:55:25.841Z,97381.16
2022-09-12T08:57:53.308Z,97385.88
2022-09-12T09:00:21.442Z,97384.91
2022-09-12T09:03:40.346Z,97381.88
2022-09-12T09:06:21.137Z,97386.13
2022-09-12T09:09:02.774Z,97382.94
2022-09-12T09:11:40.502Z,97381.44
2022-09-12T09:14:51.618Z,97382.06
2022-09-12T09:17:38.660Z,97378.81
2022-09-12T09:20:17.361Z,97381.28
2022-09-12T09:22:50.689Z,97377.19
2022-09-12T09:25:42.629Z,97376.06
2022-09-12T09:28:19.011Z,97379.22
2022-09-12T09:30:46.414Z,97375.28
2022-09-12T09:33:21.758Z,97369.78
2022-09-12T09:36:17.311Z,97377.69
2022-09-12T09:38:50.368Z,97373.50
2022-09-12T09:41:30.741Z,97376.88
2022-09-12T09:43:58.135Z,97380.84
2022-09-12T09:46:25.733Z,97371.56
2022-09-12T09:48:53.115Z,97376.63
2022-09-12T09:51:27.108Z,97380.38
2022-09-12T09:54:01.830Z,97369.44
2022-09-12T09:56:40.790Z,97376.63
2022-09-12T09:59:17.816Z,97370.41
2022-09-12T10:01:49.071Z,97369.59
2022-09-12T10:04:21.447Z,97369.34
2022-09-12T10:06:50.665Z,97373.28
2022-09-12T10:09:20.082Z,97369.25
2022-09-12T10:11:47.964Z,97369.47
2022-09-12T10:14:31.740Z,97363.72
2022-09-12T10:16:59.412Z,97362.81
2022-09-12T10:19:38.076Z,97357.22
2022-09-12T10:22:06.718Z,97351.56
2022-09-12T10:24:41.981Z,97358.06
2022-09-12T10:27:16.432Z,97356.41
2022-09-12T10:29:45.900Z,97366.59
2022-09-12T10:32:21.476Z,97361.44
2022-09-12T10:34:48.044Z,97357.41
2022-09-12T10:37:23.284Z,97355.63
2022-09-12T10:39:57.004Z,97354.38
2022-09-12T10:42:53.068Z,97352.34
2022-09-12T10:45:22.677Z,97347.19
2022-09-12T10:47:49.268Z,97350.50
2022-09-12T10:50:26.563Z,97349.84
2022-09-12T10:52:54.511Z,97351.63
2022-09-12T10:55:31.557Z,97342.56
2022-09-12T10:58:29.528Z,97343.72
2022-09-12T11:01:09.976Z,97335.78
2022-09-12T11:04:02.601Z,97327.53
2022-09-12T11:06:44.326Z,97329.31
2022-09-12T11:09:26.133Z,97318.44
2022-09-12T11:12:04.755Z,97313.75
2022-09-12T11:14:37.032Z,97306.81
2022-09-12T11:17:17.977Z,97309.53
2022-09-12T11:20:02.272Z,97299.34
2022-09-12T11:23:04.453Z,97303.38
2022-09-12T11:26:03.064Z,97304.69
2022-09-12T11:28:56.313Z,97305.97
2022-09-12T11:31:40.880Z,97302.22
2022-09-12T11:34:11.386Z,97310.47
2022-09-12T11:36:48.842Z,97303.50
2022-09-12T11:39:17.364Z,97302.69
2022-09-12T11:41:50.514Z,97297.50
2022-09-12T11:44:28.563Z,97304.66
2022-09-12T11:46:54.968Z,97294.72
2022-09-12T11:49:41.625Z,97295.41
2022-09-12T11:52:15.802Z,97296.19
2022-09-12T11:55:06.653Z,97281.41
2022-09-12T11:57:57.867Z,97284.13
2022-09-12T12:00:30.235Z,97287.47
2022-09-12T12:03:16.470Z,97293.19
2022-09-12T12:05:51.985Z,97287.97
2022-09-12T12:08:20.596Z,97283.78
2022-09-12T12:10:52.817Z,97281.31
2022-09-12T12:13:30.601Z,97274.75
2022-09-12T12:16:03.626Z,97274.63
2022-09-12T12:18:32.677Z,97266.69
2022-09-12T12:21:45.172Z,97270.59
2022-09-12T12:24:21.665Z,97266.16
2022-09-12T12:26:54.833Z,97257.94
2022-09-12T12:29:21.184Z,97258.75
2022-09-12T12:32:00.068Z,97265.03
2022-09-12T12:34:29.340Z,97251.91
2022-09-12T12:36:55.773Z,97254.44
2022-09-12T12:39:49.131Z,97256.94
2022-09-12T12:42:30.928Z,97246.75
2022-09-12T12:44:57.426Z,97244.34
2022-09-12T12:47:31.971Z,97234.13
2022-09-12T12:50:02.963Z,97239.44
2022-09-12T12:52:33.208Z,97238.88
2022-09-12T12:55:04.649Z,97231.50
2022-09-12T12:57:46.350Z,97228.19
2022-09-12T13:00:24.732Z,97233.69
2022-09-12T13:03:06.481Z,97222.31
2022-09-12T13:05:46.019Z,97219.91
2022-09-12T13:08:18.302Z,97216.13
2022-09-12T13:10:52.356Z,97213.19
2022-09-12T13:13:53.560Z,97211.63
2022-09-12T13:16:38.268Z,97218.53
2022-09-12T13:19:18.137Z,97220.72
2022-09-12T13:22:01.993Z,97218.44
2022-09-12T13:24:28.588Z,97203.75
2022-09-12T13:26:55.328Z,97203.38
2022-09-12T13:29:23.841Z,97211.88
2022-09-12T13:31:56.821Z,97198.53
2022-09-12T13:34:37.640Z,97199.56
2022-09-12T13:37:22.025Z,97193.66
2022-09-12T13:39:55.413Z,97183.81
2022-09-12T13:42:39.848Z,97186.81
2022-09-12T13:45:06.365Z,97180.31
2022-09-12T13:47:37.341Z,97187.25
2022-09-12T13:50:07.117Z,97184.31
2022-09-12T13:52:37.817Z,97182.94
2022-09-12T13:55:22.380Z,97187.38
2022-09-12T13:57:58.120Z,97185.38
2022-09-12T14:00:24.558Z,97179.47
2022-09-12T14:03:11.096Z,97167.56
2022-09-12T14:05:40.732Z,97164.38
2022-09-12T14:08:09.057Z,97165.66
2022-09-12T14:10:39.265Z,97160.16
2022-09-12T14:13:23.755Z,97150.59
2022-09-12T14:15:52.925Z,97165.31
2022-09-12T14:18:36.304Z,97151.44
2022-09-12T14:21:23.281Z,97153.88
2022-09-12T14:23:49.877Z,97151.22
2022-09-12T14:26:17.718Z,97153.31
2022-09-12T14:28:48.388Z,97147.75
2022-09-12T14:31:16.693Z,97149.03
2022-09-12T14:33:50.987Z,97145.41
2022-09-12T14:36:32.476Z,97147.94
2022-09-12T14:39:04.279Z,97146.38
2022-09-12T14:41:34.215Z,97147.22
2022-09-12T14:44:04.901Z,97150.19
2022-09-12T14:46:38.711Z,97145.53
2022-09-12T14:49:24.099Z,97133.25
2022-09-12T14:51:51.510Z,97135.91
2022-09-12T14:54:39.300Z,97137.47
2022-09-12T14:57:30.238Z,97121.72
2022-09-12T15:00:26.400Z,97126.44
2022-09-12T15:02:53.160Z,97119.91
2022-09-12T15:05:21.089Z,97120.66
2022-09-12T15:07:50.360Z,97116.50
2022-09-12T15:10:22.073Z,97114.63
2022-09-12T15:12:49.206Z,97118.41
2022-09-12T15:15:18.823Z,97112.72
2022-09-12T15:17:45.264Z,97111.19
2022-09-12T15:20:13.619Z,97113.81
2022-09-12T15:22:41.726Z,97107.53
2022-09-12T15:25:10.890Z,97102.75
2022-09-12T15:27:40.707Z,97109.19
2022-09-12T15:30:09.733Z,97102.53
2022-09-12T15:32:37.045Z,97107.97
2022-09-12T15:35:04.188Z,97100.84
2022-09-12T15:37:31.017Z,97098.81
2022-09-12T15:39:57.464Z,97097.31
2022-09-12T15:42:29.206Z,97098.50
2022-09-12T15:44:58.389Z,97094.84
2022-09-12T15:47:27.193Z,97088.13
2022-09-12T15:49:53.585Z,97070.88
2022-09-12T15:52:20.069Z,97073.69
2022-09-12T15:54:46.457Z,97078.63
2022-09-12T15:57:12.830Z,97076.78
2022-09-12T15:59:39.223Z,97074.50
2022-09-12T16:02:05.781Z,97077.97
2022-09-12T16:04:32.261Z,97069.84
2022-09-12T16:06:59.132Z,97080.34
2022-09-12T16:09:25.570Z,97073.28
2022-09-12T16:11:52.378Z,97073.75
2022-09-12T16:14:19.396Z,97072.69
2022-09-12T16:16:52.940Z,97062.66
2022-09-12T16:19:19.693Z,97059.72
2022-09-12T16:21:46.241Z,97063.28
2022-09-12T16:24:12.708Z,97068.47
2022-09-12T16:26:39.149Z,97054.09
2022-09-12T16:29:05.730Z,97058.13
2022-09-12T16:31:32.187Z,97062.91
2022-09-12T16:33:58.655Z,97055.28
2022-09-12T16:36:25.086Z,97056.34
2022-09-12T16:38:53.500Z,97054.03
2022-09-12T16:41:22.283Z,97052.84
2022-09-12T16:43:48.762Z,97048.81
2022-09-12T16:46:23.444Z,97047.19
2022-09-12T16:48:54.983Z,97050.34
2022-09-12T16:51:32.331Z,97037.41
2022-09-12T16:53:58.892Z,97046.09
2022-09-12T16:56:25.453Z,97050.19
2022-09-12T16:58:51.908Z,97046.19
2022-09-12T17:01:24.144Z,97042.81
2022-09-12T17:03:56.182Z,97048.97
2022-09-12T17:06:23.229Z,97039.91
2022-09-12T17:08:51.371Z,97044.28
2022-09-12T17:11:20.453Z,97047.59
2022-09-12T17:14:03.886Z,97050.13
2022-09-12T17:16:31.571Z,97046.56
2022-09-12T17:18:58.208Z,97042.50
2022-09-12T17:21:24.529Z,97038.56
2022-09-12T17:23:51.026Z,97043.66
2022-09-12T17:26:17.384Z,97047.91
2022-09-12T17:28:44.045Z,97041.19
2022-09-12T17:31:11.592Z,97042.09
2022-09-12T17:33:38.967Z,97040.13
2022-09-12T17:36:09.244Z,97046.56
2022-09-12T17:38:37.201Z,97041.59
2022-09-12T17:41:17.359Z,97047.31
2022-09-12T17:43:46.238Z,97050.78
2022-09-12T17:46:12.705Z,97051.63
2022-09-12T17:48:39.089Z,97053.88
2022-09-12T17:51:09.048Z,97059.94
2022-09-12T17:53:35.509Z,97064.53
2022-09-12T17:56:03.121Z,97061.88
2022-09-12T17:58:29.488Z,97062.47
2022-09-12T18:01:21.331Z,97065.00
2022-09-12T18:03:47.981Z,97059.34
2022-09-12T18:06:15.032Z,97061.81
2022-09-12T18:08:41.336Z,97065.84
2022-09-12T18:11:08.043Z,97074.44
2022-09-12T18:13:34.700Z,97075.00
2022-09-12T18:16:05.115Z,97072.78
2022-09-12T18:18:31.579Z,97072.41
2022-09-12T18:20:57.897Z,97076.53
2022-09-12T18:23:24.266Z,97075.59
2022-09-12T18:25:56.268Z,97074.41
2022-09-12T18:28:22.604Z,97073.63
2022-09-12T18:30:49.018Z,97081.59
2022-09-12T18:33:15.393Z,97075.03
2022-09-12T18:35:41.733Z,97073.75
2022-09-12T18:38:08.070Z,97075.91
2022-09-12T18:40:34.368Z,97068.63
2022-09-12T18:43:00.703Z,97073.47
2022-09-12T18:45:27.013Z,97064.81
2022-09-12T18:47:53.348Z,97066.06
2022-09-12T18:50:19.696Z,97071.72
2022-09-12T18:52:45.993Z,97070.28
2022-09-12T18:55:12.395Z,97062.59
2022-09-12T18:57:40.435Z,97071.13
2022-09-12T19:00:11.787Z,97062.56
2022-09-12T19:02:38.788Z,97069.88
2022-09-12T19:05:05.825Z,97076.84
2022-09-12T19:07:32.149Z,97074.41
2022-09-12T19:09:58.569Z,97073.06
2022-09-12T19:12:24.894Z,97078.84
2022-09-12T19:14:51.221Z,97079.63
2022-09-12T19:17:19.054Z,97078.63
2022-09-12T19:19:46.056Z,97081.53
2022-09-12T19:22:12.369Z,97082.75
2022-09-12T19:24:38.697Z,97077.00
2022-09-12T19:27:05.203Z,97075.72
2022-09-12T19:29:31.679Z,97073.81
2022-09-12T19:31:57.976Z,97064.47
2022-09-12T19:34:24.815Z,97070.59
2022-09-12T19:36:51.104Z,97063.81
2022-09-12T19:39:19.493Z,97068.16
2022-09-12T19:41:45.832Z,97072.28
2022-09-12T19:44:12.321Z,97066.94
2022-09-12T19:46:38.711Z,97064.63
2022-09-12T19:49:05.103Z,97068.19
2022-09-12T19:51:31.533Z,97073.22
2022-09-12T19:53:57.869Z,97066.63
2022-09-12T19:56:24.196Z,97064.41
2022-09-12T19:58:55.808Z,97067.69
2022-09-12T20:01:24.954Z,97062.34
2022-09-12T20:03:54.479Z,97072.69
2022-09-12T20:06:20.787Z,97073.94
2022-09-12T20:08:47.246Z,97070.19
2022-09-12T20:11:15.127Z,97066.22
2022-09-12T20:13:41.655Z,97066.50
2022-09-12T20:16:22.915Z,97054.56
2022-09-12T20:18:52.941Z,97052.41
2022-09-12T20:21:20.733Z,97057.59
2022-09-12T20:23:47.570Z,97042.66
2022-09-12T20:26:14.006Z,97040.75
2022-09-12T20:28:41.018Z,97040.22
2022-09-12T20:31:08.890Z,97032.84
2022-09-12T20:33:35.237Z,97039.06
2022-09-12T20:36:06.372Z,97035.88
2022-09-12T20:38:32.710Z,97032.56
2022-09-12T20:41:00.861Z,97027.63
2022-09-12T20:43:27.292Z,97030.53
2022-09-12T20:45:53.657Z,97034.88
2022-09-12T20:48:19.985Z,97041.97
2022-09-12T20:50:46.287Z,97032.09
2022-09-12T20:53:12.698Z,97031.00
2022-09-12T20:55:39.004Z,97034.81
2022-09-12T20:58:05.389Z,97024.78
2022-09-12T21:00:31.717Z,97030.31
2022-09-12T21:02:58.134Z,97031.69
2022-09-12T21:05:24.487Z,97031.63
2022-09-12T21:07:50.799Z,97030.84
2022-09-12T21:10:17.264Z,97033.56
2022-09-12T21:12:43.557Z,97024.59
2022-09-12T21:15:10.205Z,97030.56
2022-09-12T21:17:36.523Z,97025.13
2022-09-12T21:20:02.970Z,97024.34
2022-09-12T21:22:29.720Z,97036.53
2022-09-12T21:24:56.028Z,97027.56
2022-09-12T21:27:22.369Z,97026.81
2022-09-12T21:29:48.709Z,97026.53
2022-09-12T21:32:15.048Z,97024.94
2022-09-12T21:34:41.754Z,97023.59
2022-09-12T21:37:08.086Z,97011.94
2022-09-12T21:39:34.376Z,97015.69
2022-09-12T21:42:00.993Z,97025.16
2022-09-12T21:44:27.326Z,97018.38
2022-09-12T21:46:53.714Z,97014.03
2022-09-12T21:49:20.083Z,97015.41
2022-09-12T21:51:46.763Z,97009.16
2022-09-12T21:54:13.817Z,97010.50
2022-09-12T21:56:40.124Z,97012.22
2022-09-12T21:59:06.424Z,97002.44
2022-09-12T22:01:32.735Z,97010.88
2022-09-12T22:03:59.180Z,97000.56
2022-09-12T22:06:25.495Z,97000.59
2022-09-12T22:08:51.829Z,97001.13
2022-09-12T22:11:20.496Z,96992.72
2022-09-12T22:13:46.877Z,96985.09
2022-09-12T22:16:13.256Z,96982.41
2022-09-12T22:18:39.624Z,96983.75
2022-09-12T22:21:07.844Z,96981.63
2022-09-12T22:23:52.894Z,96974.88
2022-09-12T22:26:19.235Z,96970.50
2022-09-12T22:28:47.085Z,96968.34
2022-09-12T22:31:13.773Z,96965.91
2022-09-12T22:33:40.411Z,96972.13
2022-09-12T22:36:06.912Z,96976.19
2022-09-12T22:38:33.295Z,96972.34
2022-09-12T22:41:03.236Z,96964.38
2022-09-12T22:43:29.831Z,96971.59
2022-09-12T22:45:56.141Z,96979.69
2022-09-12T22:48:22.484Z,96973.97
2022-09-12T22:50:49.068Z,96970.09
2022-09-12T22:53:15.370Z,96970.38
2022-09-12T22:55:43.676Z,96965.00
2022-09-12T22:58:10.009Z,96977.44
2022-09-12T23:00:36.332Z,96976.53
2022-09-12T23:03:02.774Z,96982.16
2022-09-12T23:05:29.141Z,96980.13
2022-09-12T23:07:55.522Z,96982.81
2022-09-12T23:10:22.165Z,96981.25
2022-09-12T23:12:48.512Z,96984.59
2022-09-12T23:15:15.128Z,96985.22
2022-09-12T23:17:41.424Z,96983.59
2022-09-12T23:20:08.012Z,96976.53
2022-09-12T23:22:35.499Z,96973.28
2022-09-12T23:25:01.856Z,96973.50
2022-09-12T23:27:28.299Z,96967.19
2022-09-12T23:29:54.653Z,96956.88
2022-09-12T23:32:21.130Z,96956.78
2022-09-12T23:34:48.281Z,96953.50
2022-09-12T23:37:14.636Z,96951.13
2022-09-12T23:39:41.326Z,96943.53
2022-09-12T23:42:07.914Z,96940.59
2022-09-12T23:44:34.216Z,96942.25
2022-09-12T23:47:00.597Z,96947.09
2022-09-12T23:49:26.904Z,96946.72
2022-09-12T23:51:53.241Z,96953.81
2022-09-12T23:54:19.564Z,96956.22
2022-09-12T23:56:45.956Z,96961.41
2022-09-12T23:59:12.385Z,96959.66
